createdAt,value
2018-07-22T00:01:09.313Z,61.20
2018-07-22T00:06:05.840Z,61.80
2018-07-22T00:08:34.230Z,61.70
2018-07-22T00:11:02.655Z,61.60
2018-07-22T00:13:31.079Z,61.70
2018-07-22T00:15:59.511Z,62.30
2018-07-22T00:18:28.025Z,62.70
2018-07-22T00:20:56.395Z,62.40
2018-07-22T00:23:24.913Z,62.60
2018-07-22T00:25:53.321Z,62.80
2018-07-22T00:28:21.747Z,62.90
2018-07-22T00:30:50.296Z,63.10
2018-07-22T00:33:18.818Z,63.10
2018-07-22T00:35:47.264Z,63.30
2018-07-22T00:38:15.681Z,63.40
2018-07-22T00:40:44.097Z,63.70
2018-07-22T00:43:12.487Z,63.70
2018-07-22T00:45:41.042Z,63.90
2018-07-22T00:48:09.431Z,63.70
2018-07-22T00:50:37.906Z,64.10
2018-07-22T00:53:07.160Z,64.00
2018-07-22T00:55:35.672Z,63.90
2018-07-22T00:58:04.082Z,64.00
2018-07-22T01:00:32.548Z,64.00
2018-07-22T01:03:00.989Z,63.90
2018-07-22T01:05:30.256Z,63.90
2018-07-22T01:12:55.038Z,64.30
2018-07-22T01:15:23.573Z,63.90
2018-07-22T01:17:51.950Z,64.20
2018-07-22T01:20:20.380Z,64.00
2018-07-22T01:22:48.811Z,63.90
2018-07-22T01:25:17.275Z,63.80
2018-07-22T01:27:45.702Z,63.80
2018-07-22T01:30:14.417Z,64.10
2018-07-22T01:32:42.862Z,64.10
2018-07-22T01:35:11.302Z,64.20
2018-07-22T01:37:39.787Z,63.90
2018-07-22T01:40:08.238Z,63.70
2018-07-22T01:42:36.661Z,64.10
2018-07-22T01:45:05.127Z,64.10
2018-07-22T01:47:33.640Z,64.20
2018-07-22T01:50:02.028Z,64.00
2018-07-22T01:52:31.019Z,64.30
2018-07-22T01:59:55.860Z,64.60
2018-07-22T02:02:24.309Z,65.00
2018-07-22T02:04:52.749Z,65.40
2018-07-22T02:07:21.169Z,65.50
2018-07-22T02:09:49.574Z,65.80
2018-07-22T02:12:18.069Z,65.80
2018-07-22T02:14:46.454Z,65.90
2018-07-22T02:19:42.990Z,65.60
2018-07-22T02:22:11.464Z,65.80
2018-07-22T02:24:39.936Z,65.80
2018-07-22T02:27:08.339Z,65.80
2018-07-22T02:29:36.813Z,65.60
2018-07-22T02:32:05.210Z,65.40
2018-07-22T02:34:33.650Z,65.60
2018-07-22T02:37:02.066Z,65.70
2018-07-22T02:39:30.545Z,66.10
2018-07-22T02:41:58.929Z,66.60
2018-07-22T02:46:55.521Z,65.60
2018-07-22T02:49:23.895Z,65.80
2018-07-22T02:51:52.458Z,65.50
2018-07-22T02:56:48.962Z,65.40
2018-07-22T02:59:17.324Z,65.20
2018-07-22T03:01:45.727Z,65.80
2018-07-22T03:04:14.125Z,65.40
2018-07-22T03:06:42.541Z,65.50
2018-07-22T03:09:11.000Z,65.60
2018-07-22T03:11:39.474Z,65.70
2018-07-22T03:14:07.903Z,65.90
2018-07-22T03:16:36.337Z,65.90
2018-07-22T03:19:04.755Z,65.70
2018-07-22T03:21:33.422Z,65.20
2018-07-22T03:24:01.866Z,65.20
2018-07-22T03:26:30.290Z,65.60
2018-07-22T03:28:58.765Z,65.50
2018-07-22T03:31:27.225Z,65.60
2018-07-22T03:33:55.676Z,65.50
2018-07-22T03:36:24.081Z,66.20
2018-07-22T03:38:52.537Z,66.70
2018-07-22T03:41:20.973Z,66.70
2018-07-22T03:46:17.554Z,66.80
2018-07-22T03:48:46.142Z,66.50
2018-07-22T03:51:14.905Z,66.20
2018-07-22T03:53:43.260Z,66.10
2018-07-22T03:56:11.708Z,65.90
2018-07-22T03:58:40.144Z,66.10
2018-07-22T04:01:08.546Z,66.40
2018-07-22T04:03:36.907Z,66.10
2018-07-22T04:06:06.319Z,66.20
2018-07-22T04:08:34.705Z,66.60
2018-07-22T04:11:03.149Z,66.50
2018-07-22T04:13:31.545Z,66.50
2018-07-22T04:15:59.979Z,66.50
2018-07-22T04:18:28.488Z,66.60
2018-07-22T04:20:56.862Z,66.50
2018-07-22T04:23:25.283Z,65.90
2018-07-22T04:28:23.155Z,59.60
2018-07-22T04:30:51.858Z,59.30
2018-07-22T04:33:20.855Z,59.00
2018-07-22T04:35:49.425Z,63.00
2018-07-22T04:38:18.125Z,64.50
2018-07-22T04:40:46.658Z,65.70
2018-07-22T04:43:15.126Z,67.60
2018-07-22T04:45:43.517Z,69.00
2018-07-22T04:48:12.106Z,68.20
2018-07-22T04:50:40.730Z,67.60
2018-07-22T04:53:09.147Z,69.80
2018-07-22T04:55:37.558Z,69.50
2018-07-22T04:58:06.048Z,70.00
2018-07-22T05:00:34.441Z,70.10
2018-07-22T05:03:03.066Z,71.20
2018-07-22T05:07:59.798Z,71.10
2018-07-22T05:10:29.036Z,70.60
2018-07-22T05:12:57.476Z,70.70
2018-07-22T05:15:25.897Z,71.30
2018-07-22T05:17:54.342Z,70.60
2018-07-22T05:20:22.790Z,71.00
2018-07-22T05:22:52.090Z,71.30
2018-07-22T05:25:20.526Z,71.70
2018-07-22T05:27:48.921Z,70.90
2018-07-22T05:30:17.348Z,71.50
2018-07-22T05:32:45.758Z,70.90
2018-07-22T05:35:14.789Z,72.40
2018-07-22T05:37:43.184Z,71.70
2018-07-22T05:40:11.637Z,71.40
2018-07-22T05:42:40.101Z,73.10
2018-07-22T05:45:08.628Z,73.10
2018-07-22T05:47:36.994Z,73.50
2018-07-22T05:50:05.478Z,72.00
2018-07-22T05:52:34.141Z,73.20
2018-07-22T05:55:02.554Z,71.80
2018-07-22T05:57:31.045Z,72.10
2018-07-22T05:59:59.501Z,72.10
2018-07-22T06:04:56.129Z,73.40
2018-07-22T06:07:24.560Z,72.10
2018-07-22T06:09:52.953Z,74.00
2018-07-22T06:12:21.371Z,73.00
2018-07-22T06:14:49.793Z,73.80
2018-07-22T06:17:18.233Z,72.20
2018-07-22T06:19:46.723Z,72.30
2018-07-22T06:22:15.148Z,73.30
2018-07-22T06:24:43.546Z,71.70
2018-07-22T06:27:11.999Z,72.20
2018-07-22T06:29:40.397Z,71.80
2018-07-22T06:32:08.825Z,70.60
2018-07-22T06:34:37.186Z,69.70
2018-07-22T06:37:05.707Z,69.70
2018-07-22T06:39:34.194Z,70.50
2018-07-22T06:42:02.616Z,70.90
2018-07-22T06:44:31.089Z,69.40
2018-07-22T06:46:59.498Z,68.50
2018-07-22T06:49:27.890Z,69.20
2018-07-22T06:51:56.402Z,67.70
2018-07-22T06:54:24.890Z,67.20
2018-07-22T06:56:53.269Z,67.80
2018-07-22T06:59:21.859Z,67.20
2018-07-22T07:01:51.446Z,67.30
2018-07-22T07:04:19.909Z,67.20
2018-07-22T07:06:48.338Z,65.90
2018-07-22T07:09:16.759Z,66.70
2018-07-22T07:11:45.202Z,63.10
2018-07-22T07:14:13.614Z,63.00
2018-07-22T07:16:42.046Z,61.80
2018-07-22T07:19:10.508Z,61.10
2018-07-22T07:21:39.027Z,61.90
2018-07-22T07:24:07.474Z,61.00
2018-07-22T07:26:35.916Z,58.60
2018-07-22T07:29:04.547Z,57.50
2018-07-22T07:31:33.197Z,58.40
2018-07-22T07:34:01.615Z,57.90
2018-07-22T07:36:30.289Z,57.10
2018-07-22T07:38:58.679Z,56.00
2018-07-22T07:41:27.124Z,54.50
2018-07-22T07:43:55.521Z,55.70
2018-07-22T07:46:23.918Z,55.50
2018-07-22T07:48:52.305Z,55.20
2018-07-22T07:51:20.706Z,55.00
2018-07-22T07:53:49.203Z,52.10
2018-07-22T07:56:17.870Z,53.40
2018-07-22T07:58:46.422Z,53.70
2018-07-22T08:01:14.837Z,54.60
2018-07-22T08:03:43.232Z,53.80
2018-07-22T08:06:11.739Z,52.20
2018-07-22T08:08:40.182Z,52.40
2018-07-22T08:11:08.665Z,52.50
2018-07-22T08:13:37.117Z,52.00
2018-07-22T08:16:05.929Z,50.60
2018-07-22T08:21:02.603Z,50.90
2018-07-22T08:23:31.017Z,50.90
2018-07-22T08:25:59.477Z,51.30
2018-07-22T08:28:38.976Z,51.50
2018-07-22T08:31:07.740Z,50.40
2018-07-22T08:33:36.142Z,49.40
2018-07-22T08:36:05.362Z,50.50
2018-07-22T08:38:33.861Z,49.50
2018-07-22T08:41:02.300Z,49.30
2018-07-22T08:43:31.089Z,49.10
2018-07-22T08:45:59.535Z,48.10
2018-07-22T08:48:27.940Z,46.90
2018-07-22T08:50:56.449Z,46.00
2018-07-22T08:53:24.897Z,45.30
2018-07-22T08:55:53.311Z,46.00
2018-07-22T08:58:21.858Z,45.00
2018-07-22T09:00:50.416Z,44.10
2018-07-22T09:03:18.919Z,44.30
2018-07-22T09:05:47.328Z,45.60
2018-07-22T09:08:15.795Z,43.60
2018-07-22T09:13:12.364Z,43.70
2018-07-22T09:15:40.869Z,43.70
2018-07-22T09:18:09.997Z,42.40
2018-07-22T09:20:38.433Z,42.00
2018-07-22T09:23:06.892Z,41.20
2018-07-22T09:25:35.405Z,41.10
2018-07-22T09:28:10.346Z,41.70
2018-07-22T09:30:38.821Z,42.70
2018-07-22T09:33:07.224Z,42.00
2018-07-22T09:38:03.941Z,39.40
2018-07-22T09:40:32.459Z,39.00
2018-07-22T09:43:01.926Z,40.40
2018-07-22T09:45:30.517Z,41.30
2018-07-22T09:47:59.509Z,42.70
2018-07-22T09:50:28.973Z,41.80
2018-07-22T09:52:58.237Z,40.90
2018-07-22T09:55:26.632Z,39.50
2018-07-22T09:57:55.047Z,38.30
2018-07-22T10:00:28.610Z,38.80
2018-07-22T10:02:57.062Z,38.70
2018-07-22T10:05:25.465Z,39.50
2018-07-22T10:07:53.926Z,38.90
2018-07-22T10:10:23.108Z,38.60
2018-07-22T10:12:51.510Z,38.00
2018-07-22T10:15:19.909Z,39.70
2018-07-22T10:17:48.317Z,38.30
2018-07-22T10:20:16.741Z,39.30
2018-07-22T10:22:45.902Z,39.90
2018-07-22T10:27:42.449Z,37.50
2018-07-22T10:30:10.900Z,37.80
2018-07-22T10:32:39.408Z,39.40
2018-07-22T10:35:07.863Z,40.10
2018-07-22T10:37:36.350Z,39.00
2018-07-22T10:40:04.833Z,38.00
2018-07-22T10:42:33.260Z,38.30
2018-07-22T10:45:01.746Z,38.50
2018-07-22T10:47:30.170Z,37.40
2018-07-22T10:49:58.608Z,37.10
2018-07-22T10:52:27.014Z,37.60
2018-07-22T10:54:55.422Z,36.70
2018-07-22T10:57:23.843Z,37.00
2018-07-22T10:59:52.270Z,36.60
2018-07-22T11:02:20.702Z,37.20
2018-07-22T11:04:49.145Z,38.10
2018-07-22T11:07:17.617Z,39.50
2018-07-22T11:09:46.021Z,36.30
2018-07-22T11:12:14.394Z,38.40
2018-07-22T11:14:42.933Z,37.70
2018-07-22T11:17:11.297Z,38.00
2018-07-22T11:19:39.665Z,38.70
2018-07-22T11:22:08.325Z,36.60
2018-07-22T11:24:36.818Z,35.90
2018-07-22T11:27:05.310Z,36.00
2018-07-22T11:29:33.886Z,37.30
2018-07-22T11:32:02.509Z,37.60
2018-07-22T11:34:31.833Z,36.90
2018-07-22T11:37:00.246Z,37.30
2018-07-22T11:39:29.397Z,37.70
2018-07-22T11:41:57.834Z,38.20
2018-07-22T11:44:26.247Z,38.00
2018-07-22T11:46:54.714Z,38.40
2018-07-22T11:49:23.155Z,38.10
2018-07-22T11:51:52.377Z,38.70
2018-07-22T11:54:20.825Z,39.20
2018-07-22T11:56:49.235Z,37.70
2018-07-22T11:59:17.617Z,37.90
2018-07-22T12:01:46.095Z,38.60
2018-07-22T12:04:14.644Z,38.10
2018-07-22T12:06:43.065Z,37.40
2018-07-22T12:09:12.558Z,36.30
2018-07-22T12:11:41.106Z,35.70
2018-07-22T12:14:09.512Z,37.10
2018-07-22T12:16:37.918Z,38.40
2018-07-22T12:19:06.606Z,38.40
2018-07-22T12:21:35.047Z,37.50
2018-07-22T12:24:03.476Z,37.80
2018-07-22T12:26:31.953Z,38.50
2018-07-22T12:29:00.567Z,39.50
2018-07-22T12:31:28.941Z,38.50
2018-07-22T12:33:57.717Z,39.90
2018-07-22T12:36:26.173Z,38.00
2018-07-22T12:38:54.602Z,39.80
2018-07-22T12:41:23.078Z,36.90
2018-07-22T12:43:51.524Z,37.80
2018-07-22T12:46:19.902Z,37.50
2018-07-22T12:48:48.469Z,37.80
2018-07-22T12:51:17.011Z,37.50
2018-07-22T12:53:45.511Z,34.80
2018-07-22T12:56:13.907Z,34.20
2018-07-22T12:58:42.488Z,33.60
2018-07-22T13:01:10.912Z,35.00
2018-07-22T13:03:39.394Z,36.10
2018-07-22T13:06:07.861Z,36.20
2018-07-22T13:08:36.857Z,37.50
2018-07-22T13:11:06.365Z,37.70
2018-07-22T13:13:35.385Z,38.00
2018-07-22T13:16:03.895Z,38.00
2018-07-22T13:21:00.901Z,37.40
2018-07-22T13:23:29.324Z,37.80
2018-07-22T13:25:57.724Z,38.40
2018-07-22T13:28:26.134Z,37.80
2018-07-22T13:30:54.587Z,37.50
2018-07-22T13:33:22.960Z,37.80
2018-07-22T13:35:51.357Z,38.10
2018-07-22T13:38:19.920Z,38.00
2018-07-22T13:40:48.281Z,37.80
2018-07-22T13:43:16.657Z,37.20
2018-07-22T13:45:45.137Z,37.40
2018-07-22T13:48:13.565Z,37.10
2018-07-22T13:50:42.139Z,37.70
2018-07-22T13:55:38.826Z,35.40
2018-07-22T13:58:07.289Z,34.30
2018-07-22T14:00:35.866Z,35.00
2018-07-22T14:03:04.431Z,34.90
2018-07-22T14:05:32.958Z,34.80
2018-07-22T14:08:01.960Z,34.10
2018-07-22T14:10:30.441Z,35.20
2018-07-22T14:13:01.354Z,35.30
2018-07-22T14:15:31.452Z,35.90
2018-07-22T14:17:59.902Z,36.10
2018-07-22T14:20:30.382Z,35.40
2018-07-22T14:23:05.776Z,35.20
2018-07-22T14:25:34.204Z,34.30
2018-07-22T14:30:30.785Z,35.60
2018-07-22T14:32:59.367Z,34.60
2018-07-22T14:35:27.972Z,33.90
2018-07-22T14:37:56.413Z,33.70
2018-07-22T14:40:24.868Z,33.40
2018-07-22T14:42:53.423Z,33.70
2018-07-22T14:45:21.873Z,34.00
2018-07-22T14:50:18.557Z,34.30
2018-07-22T14:52:47.040Z,34.60
2018-07-22T14:55:15.461Z,33.80
2018-07-22T14:57:43.850Z,34.40
2018-07-22T15:00:12.398Z,33.60
2018-07-22T15:02:40.778Z,34.40
2018-07-22T15:05:09.225Z,34.30
2018-07-22T15:10:05.980Z,34.50
2018-07-22T15:12:34.952Z,34.70
2018-07-22T15:15:03.568Z,35.10
2018-07-22T15:17:32.010Z,35.60
2018-07-22T15:20:00.667Z,35.40
2018-07-22T15:22:29.122Z,36.00
2018-07-22T15:24:57.693Z,36.10
2018-07-22T15:27:26.979Z,36.70
2018-07-22T15:29:55.496Z,37.50
2018-07-22T15:32:23.893Z,38.10
2018-07-22T15:34:52.308Z,37.60
2018-07-22T15:37:20.743Z,37.30
2018-07-22T15:39:49.231Z,37.60
2018-07-22T15:42:17.682Z,37.50
2018-07-22T15:44:46.121Z,37.40
2018-07-22T15:47:14.591Z,36.90
2018-07-22T15:49:42.987Z,36.90
2018-07-22T15:52:11.454Z,37.00
2018-07-22T15:54:39.853Z,37.90
2018-07-22T15:57:08.259Z,36.90
2018-07-22T15:59:36.677Z,37.40
2018-07-22T16:02:05.102Z,37.40
2018-07-22T16:04:33.577Z,37.90
2018-07-22T16:07:02.048Z,38.20
2018-07-22T16:09:30.445Z,38.30
2018-07-22T16:11:58.874Z,39.00
2018-07-22T16:16:55.541Z,38.90
2018-07-22T16:19:23.993Z,38.00
2018-07-22T16:24:20.523Z,38.70
2018-07-22T16:26:49.004Z,39.10
2018-07-22T16:29:17.482Z,39.50
2018-07-22T16:31:45.889Z,39.50
2018-07-22T16:36:42.630Z,39.40
2018-07-22T16:39:11.054Z,39.70
2018-07-22T16:41:39.908Z,39.60
2018-07-22T16:44:08.342Z,40.00
2018-07-22T16:46:37.309Z,40.30
2018-07-22T16:49:05.681Z,40.20
2018-07-22T16:51:34.333Z,40.20
2018-07-22T16:54:02.794Z,40.20
2018-07-22T16:56:31.214Z,40.50
2018-07-22T16:58:59.618Z,40.80
2018-07-22T17:01:28.040Z,41.10
2018-07-22T17:03:56.509Z,40.80
2018-07-22T17:06:24.905Z,41.10
2018-07-22T17:08:53.330Z,40.90
2018-07-22T17:11:21.729Z,40.80
2018-07-22T17:13:50.121Z,40.70
2018-07-22T17:16:18.591Z,40.30
2018-07-22T17:21:15.213Z,40.60
2018-07-22T17:23:43.635Z,40.10
2018-07-22T17:26:12.394Z,40.10
2018-07-22T17:28:40.828Z,40.80
2018-07-22T17:31:09.261Z,40.60
2018-07-22T17:33:37.765Z,41.30
2018-07-22T17:36:06.826Z,41.40
2018-07-22T17:38:35.273Z,42.10
2018-07-22T17:41:03.672Z,41.60
2018-07-22T17:46:00.811Z,42.30
2018-07-22T17:48:29.304Z,42.10
2018-07-22T17:50:57.728Z,42.70
2018-07-22T17:53:26.316Z,43.00
2018-07-22T17:55:55.454Z,43.40
2018-07-22T18:00:52.134Z,43.00
2018-07-22T18:03:30.105Z,43.60
2018-07-22T18:08:26.687Z,44.20
2018-07-22T18:10:55.677Z,44.20
2018-07-22T18:13:24.138Z,44.80
2018-07-22T18:15:52.573Z,45.70
2018-07-22T18:18:21.067Z,45.40
2018-07-22T18:20:49.897Z,45.30
2018-07-22T18:23:18.380Z,45.40
2018-07-22T18:25:47.307Z,45.20
2018-07-22T18:28:16.328Z,45.40
2018-07-22T18:30:45.274Z,47.20
2018-07-22T18:33:13.768Z,48.50
2018-07-22T18:35:42.417Z,47.20
2018-07-22T18:40:39.319Z,48.60
2018-07-22T18:43:08.007Z,49.40
2018-07-22T18:45:36.798Z,49.30
2018-07-22T18:48:06.278Z,49.30
2018-07-22T18:50:34.772Z,49.80
2018-07-22T18:53:03.997Z,50.20
2018-07-22T18:55:33.198Z,50.20
2018-07-22T18:58:01.939Z,50.20
2018-07-22T19:00:30.753Z,50.20
2018-07-22T19:02:59.628Z,50.30
2018-07-22T19:05:28.376Z,50.60
2018-07-22T19:07:57.135Z,50.50
2018-07-22T19:10:25.899Z,51.00
2018-07-22T19:12:54.626Z,51.00
2018-07-22T19:15:23.459Z,51.00
2018-07-22T19:17:52.216Z,51.60
2018-07-22T19:20:20.945Z,51.30
2018-07-22T19:22:49.719Z,51.30
2018-07-22T19:25:18.573Z,51.70
2018-07-22T19:27:47.294Z,52.20
2018-07-22T19:30:16.089Z,52.20
2018-07-22T19:32:44.933Z,52.20
2018-07-22T19:35:13.654Z,52.80
2018-07-22T19:37:42.438Z,52.50
2018-07-22T19:40:11.238Z,52.70
2018-07-22T19:42:40.235Z,53.10
2018-07-22T19:45:09.042Z,52.90
2018-07-22T19:47:37.781Z,53.10
2018-07-22T19:50:06.629Z,53.40
2018-07-22T19:52:35.359Z,53.60
2018-07-22T19:55:04.994Z,54.00
2018-07-22T20:00:03.372Z,54.50
2018-07-22T20:02:32.063Z,54.40
2018-07-22T20:05:00.941Z,54.40
2018-07-22T20:07:29.595Z,55.00
2018-07-22T20:09:58.957Z,54.90
2018-07-22T20:14:56.252Z,55.20
2018-07-22T20:17:25.054Z,55.50
2018-07-22T20:19:53.825Z,55.30
2018-07-22T20:22:22.863Z,55.30
2018-07-22T20:24:52.978Z,55.20
2018-07-22T20:27:21.426Z,55.20
2018-07-22T20:29:50.105Z,55.40
2018-07-22T20:32:18.602Z,56.00
2018-07-22T20:34:47.047Z,56.00
2018-07-22T20:37:15.761Z,55.90
2018-07-22T20:42:12.535Z,56.50
2018-07-22T20:44:40.914Z,56.70
2018-07-22T20:47:09.414Z,57.00
2018-07-22T20:49:37.825Z,57.20
2018-07-22T20:52:06.441Z,57.50
2018-07-22T20:54:34.888Z,57.70
2018-07-22T20:57:03.362Z,57.80
2018-07-22T20:59:32.513Z,58.40
2018-07-22T21:02:00.915Z,58.30
2018-07-22T21:04:29.340Z,58.30
2018-07-22T21:06:57.797Z,58.70
2018-07-22T21:09:26.212Z,58.90
2018-07-22T21:13:07.066Z,58.90
2018-07-22T21:15:35.560Z,59.40
2018-07-22T21:18:04.075Z,59.50
2018-07-22T21:23:00.630Z,59.40
2018-07-22T21:25:29.062Z,59.80
2018-07-22T21:27:57.434Z,60.40
2018-07-22T21:30:25.847Z,60.30
2018-07-22T21:32:54.297Z,60.30
2018-07-22T21:35:22.700Z,60.90
2018-07-22T21:37:51.145Z,60.80
2018-07-22T21:40:19.672Z,61.00
2018-07-22T21:42:48.017Z,60.80
2018-07-22T21:45:16.405Z,61.30
2018-07-22T21:47:44.832Z,61.30
2018-07-22T21:50:13.296Z,61.30
2018-07-22T21:52:41.722Z,61.50
2018-07-22T21:55:10.189Z,62.00
2018-07-22T21:57:38.667Z,62.10
2018-07-22T22:00:15.922Z,62.50
2018-07-22T22:02:44.327Z,62.50
2018-07-22T22:05:12.725Z,62.60
2018-07-22T22:07:41.265Z,63.10
2018-07-22T22:10:09.643Z,63.30
2018-07-22T22:12:38.188Z,63.10
2018-07-22T22:15:10.796Z,63.10
2018-07-22T22:20:07.486Z,64.20
2018-07-22T22:22:35.881Z,63.90
2018-07-22T22:25:04.334Z,64.10
2018-07-22T22:27:32.800Z,64.40
2018-07-22T22:30:01.275Z,64.40
2018-07-22T22:32:29.675Z,64.60
2018-07-22T22:34:58.097Z,65.00
2018-07-22T22:37:26.484Z,65.30
2018-07-22T22:39:54.979Z,65.30
2018-07-22T22:42:23.384Z,66.20
2018-07-22T22:44:51.777Z,66.20
2018-07-22T22:47:20.157Z,66.40
2018-07-22T22:49:48.549Z,66.90
2018-07-22T22:52:16.989Z,66.90
2018-07-22T22:54:45.450Z,66.80
2018-07-22T22:57:13.868Z,67.10
2018-07-22T22:59:42.975Z,67.20
2018-07-22T23:02:11.468Z,67.60
2018-07-22T23:04:39.874Z,67.50
2018-07-22T23:07:08.389Z,67.30
2018-07-22T23:09:36.753Z,67.70
2018-07-22T23:12:05.150Z,67.80
2018-07-22T23:14:33.532Z,67.70
2018-07-22T23:17:01.998Z,68.10
2018-07-22T23:19:30.452Z,67.80
2018-07-22T23:21:58.875Z,68.10
2018-07-22T23:24:27.314Z,68.30
2018-07-22T23:26:55.749Z,68.30
2018-07-22T23:29:24.136Z,68.40
2018-07-22T23:31:52.541Z,68.20
2018-07-22T23:34:20.988Z,68.50
2018-07-22T23:36:49.444Z,68.60
2018-07-22T23:39:17.909Z,68.90
2018-07-22T23:41:46.288Z,68.80
2018-07-22T23:44:14.736Z,68.90
2018-07-22T23:46:43.148Z,68.90
2018-07-22T23:49:11.563Z,68.90
2018-07-22T23:51:39.957Z,68.90
2018-07-22T23:54:08.484Z,69.30
2018-07-22T23:56:37.010Z,69.60
2018-07-22T23:59:05.401Z,70.00
